Time;durP1;ratioP1;P1;durP2;ratioP2;P2;SDS_P1;SDS_P2;PMS_P1;PMS_P2;Temp;Humidity;BMP_temperature;BMP_pressure;BME280_temperature;BME280_humidity;BME280_pressure;Samples;Min_cycle;Max_cycle;Signal;HPM_P1;HPM_P2
2021/11/27 00:01:17;;;;;;;1.50;1.40;;;;;;;10.97;59.29;92974.00;826382;71;32704;-77
2021/11/27 00:16:16;;;;;;;1.50;1.40;;;;;;;10.97;59.28;92994.99;826914;71;33102;-79
2021/11/27 00:31:12;;;;;;;1.50;1.50;;;;;;;10.95;58.83;93005.05;834337;71;29466;-79
2021/11/27 00:46:09;;;;;;;1.60;1.50;;;;;;;11.05;58.85;93014.36;827633;71;29979;-76
2021/11/27 01:01:26;;;;;;;1.62;1.62;;;;;;;11.04;59.91;93001.00;826571;71;32747;-77
2021/11/27 01:16:32;;;;;;;1.55;1.50;;;;;;;11.05;60.39;93024.07;816626;71;33497;-78
2021/11/27 01:31:29;;;;;;;1.50;1.50;;;;;;;11.05;60.85;92984.70;833466;71;32869;-76
2021/11/27 01:46:15;;;;;;;1.50;1.50;;;;;;;11.06;60.58;92956.83;826889;71;32773;-78
2021/11/27 02:01:12;;;;;;;2.02;1.50;;;;;;;11.03;60.80;92943.06;819062;71;30384;-78
2021/11/27 02:16:09;;;;;;;2.10;1.70;;;;;;;11.12;59.95;92949.50;834555;71;31920;-77
2021/11/27 02:31:14;;;;;;;3.47;1.67;;;;;;;11.20;60.10;92954.63;827330;71;32964;-78
2021/11/27 02:46:08;;;;;;;1.50;1.40;;;;;;;11.16;60.18;92909.12;827888;71;29744;-78
2021/11/27 03:16:12;;;;;;;1.90;1.70;;;;;;;11.17;59.16;92900.17;827844;71;31981;-79
2021/11/27 03:31:08;;;;;;;1.40;1.30;;;;;;;11.22;58.80;92882.87;827782;71;29725;-77
2021/11/27 03:46:15;;;;;;;2.72;1.55;;;;;;;11.28;58.54;92919.41;826866;71;33151;-81
2021/11/27 04:01:11;;;;;;;1.75;1.65;;;;;;;11.27;59.32;92974.31;827445;71;29929;-78
2021/11/27 04:16:14;;;;;;;2.52;1.75;;;;;;;11.29;59.09;93012.83;827058;71;32753;-75
2021/11/27 04:31:08;;;;;;;1.92;1.82;;;;;;;11.34;59.26;93015.25;827955;71;29772;-77
2021/11/27 04:46:10;;;;;;;2.47;1.87;;;;;;;11.29;59.46;93020.15;827659;71;30214;-78
2021/11/27 05:01:09;;;;;;;1.60;1.50;;;;;;;11.26;59.68;93009.00;827917;71;30527;-75
2021/11/27 05:16:16;;;;;;;2.77;2.58;;;;;;;11.25;59.56;93008.77;826767;71;32713;-77
2021/11/27 05:31:15;;;;;;;2.05;1.85;;;;;;;11.29;59.56;93044.34;828716;71;32023;-76
2021/11/27 05:46:14;;;;;;;2.83;1.90;;;;;;;11.32;59.87;93061.52;827813;71;32733;-77
2021/11/27 06:01:11;;;;;;;5.47;1.80;;;;;;;11.53;59.73;93092.17;833551;71;30286;-77
2021/11/27 06:02:26;;;;;;;1.90;1.80;;;;;;;11.55;59.78;93082.10;807512;72;27419;-78
2021/11/27 06:03:34;;;;;;;2.00;1.80;;;;;;;11.69;59.64;93090.97;801299;73;26283;-77
2021/11/27 06:04:44;;;;;;;7.12;2.95;;;;;;;11.89;59.31;93091.98;805811;72;26698;-77
2021/11/27 06:05:52;;;;;;;2.22;1.72;;;;;;;12.12;58.87;93096.22;809278;72;26285;-78
2021/11/27 06:07:02;;;;;;;1.75;1.65;;;;;;;12.37;58.25;93087.74;807860;72;26788;-79
2021/11/27 06:08:10;;;;;;;2.45;2.25;;;;;;;12.58;57.38;93126.47;806992;73;26350;-76
2021/11/27 06:09:31;;;;;;;1.90;1.77;;;;;;;12.80;57.62;93122.56;807817;72;26201;-77
2021/11/27 06:10:44;;;;;;;1.55;1.40;;;;;;;13.01;56.23;93110.50;808864;72;26383;-78
2021/11/27 06:11:54;;;;;;;2.35;1.77;;;;;;;13.21;55.54;93098.78;812107;72;26349;-78
2021/11/27 06:13:06;;;;;;;1.98;1.77;;;;;;;13.34;54.70;93088.42;807504;71;26280;-79
2021/11/27 06:14:21;;;;;;;1.95;1.75;;;;;;;13.51;54.40;93096.54;821293;72;26338;-79
2021/11/27 06:15:29;;;;;;;1.80;1.70;;;;;;;13.70;53.90;93097.72;804013;73;26279;-77
2021/11/27 06:16:44;;;;;;;2.00;1.90;;;;;;;13.85;53.60;93089.05;811826;71;26243;-77
2021/11/27 06:18:10;;;;;;;1.80;1.70;;;;;;;13.98;52.81;93124.73;828929;71;26284;-77
2021/11/27 06:19:29;;;;;;;1.82;1.72;;;;;;;14.13;52.40;93109.22;821139;71;26253;-79
2021/11/27 06:20:39;;;;;;;1.60;1.50;;;;;;;14.27;52.20;93126.67;816287;72;26444;-78
2021/11/27 06:22:06;;;;;;;2.00;1.72;;;;;;;14.41;51.58;93144.13;807991;73;26268;-79
2021/11/27 06:23:18;;;;;;;2.00;1.90;;;;;;;14.57;51.43;93129.59;807667;73;26240;-77
2021/11/27 06:24:28;;;;;;;1.62;1.50;;;;;;;14.72;51.27;93133.31;808294;71;26262;-76
2021/11/27 06:25:36;;;;;;;2.30;1.50;;;;;;;14.81;50.52;93125.94;807962;73;27591;-78
2021/11/27 06:26:46;;;;;;;1.50;1.50;;;;;;;14.86;50.08;93112.24;803829;73;26309;-74
2021/11/27 06:27:50;;;;;;;1.35;1.35;;;;;;;14.93;50.10;93138.80;804464;72;26671;-77
2021/11/27 06:28:56;;;;;;;1.80;1.70;;;;;;;14.99;49.73;93118.92;797517;73;26382;-78
2021/11/27 06:30:05;;;;;;;1.30;1.30;;;;;;;15.05;49.79;93136.58;805749;72;26664;-77
2021/11/27 06:31:09;;;;;;;1.67;1.57;;;;;;;15.14;49.54;93131.26;816269;72;26257;-79
2021/11/27 06:32:13;;;;;;;2.65;1.90;;;;;;;15.21;49.26;93136.69;821624;71;26271;-79
2021/11/27 06:33:17;;;;;;;1.50;1.40;;;;;;;15.33;49.32;93118.59;828046;71;26264;-79
2021/11/27 06:34:21;;;;;;;1.75;1.65;;;;;;;15.52;49.03;93126.27;828166;71;26338;-79
2021/11/27 06:35:24;;;;;;;1.67;1.52;;;;;;;15.64;48.09;93111.55;828037;71;26373;-79
2021/11/27 06:36:28;;;;;;;1.65;1.55;;;;;;;15.73;47.96;93117.94;827851;71;26284;-77
2021/11/27 06:37:33;;;;;;;2.22;1.85;;;;;;;15.82;47.74;93122.44;827874;71;26337;-79
2021/11/27 06:38:39;;;;;;;2.08;1.98;;;;;;;15.91;47.52;93108.96;815917;71;26261;-76
2021/11/27 06:39:42;;;;;;;2.35;1.47;;;;;;;16.00;47.17;93131.41;808225;73;26314;-77
2021/11/27 06:40:46;;;;;;;1.72;1.50;;;;;;;16.07;46.91;93110.14;807673;73;27052;-79
2021/11/27 06:41:50;;;;;;;1.50;1.40;;;;;;;16.10;46.65;93096.97;806741;73;26340;-82
2021/11/27 06:42:55;;;;;;;1.87;1.77;;;;;;;16.06;46.40;93117.33;806726;73;26402;-77
2021/11/27 06:43:58;;;;;;;1.90;1.70;;;;;;;16.06;46.35;93108.06;806767;73;26377;-78
2021/11/27 06:45:03;;;;;;;1.90;1.80;;;;;;;16.15;46.42;93135.59;806252;73;26345;-77
2021/11/27 06:46:07;;;;;;;4.17;1.80;;;;;;;16.22;46.16;93142.33;806766;73;26228;-78
2021/11/27 06:47:11;;;;;;;1.70;1.60;;;;;;;16.31;45.82;93129.58;806988;72;26834;-78
2021/11/27 06:48:15;;;;;;;2.42;1.65;;;;;;;16.37;45.63;93145.92;807234;72;26388;-79
2021/11/27 06:49:19;;;;;;;1.90;1.80;;;;;;;16.37;45.38;93159.92;806753;73;26342;-78
2021/11/27 06:50:23;;;;;;;3.25;1.87;;;;;;;16.32;45.34;93158.91;807353;72;26558;-78
2021/11/27 06:51:27;;;;;;;1.85;1.65;;;;;;;16.28;45.42;93142.22;807703;73;26453;-77
2021/11/27 06:52:31;;;;;;;1.80;1.72;;;;;;;16.26;45.54;93151.08;807535;73;26358;-76
2021/11/27 06:53:35;;;;;;;1.80;1.70;;;;;;;16.28;45.67;93157.31;806592;73;26483;-79
2021/11/27 06:54:41;;;;;;;1.85;1.60;;;;;;;16.30;45.63;93147.92;806626;73;26745;-77
2021/11/27 06:55:45;;;;;;;1.62;1.62;;;;;;;16.27;45.43;93182.27;806780;73;26276;-79
2021/11/27 06:56:49;;;;;;;2.02;1.92;;;;;;;16.19;45.36;93127.90;807230;72;26330;-77
2021/11/27 06:57:52;;;;;;;2.00;1.90;;;;;;;16.20;45.36;93151.94;806901;73;26280;-79
2021/11/27 06:58:56;;;;;;;1.80;1.70;;;;;;;16.25;45.27;93164.09;806498;73;26280;-78
2021/11/27 07:00:00;;;;;;;1.90;1.80;;;;;;;16.27;45.16;93151.27;806597;73;26490;-77
2021/11/27 07:01:04;;;;;;;1.70;1.60;;;;;;;16.24;45.13;93179.78;806839;73;26780;-80
2021/11/27 07:02:09;;;;;;;1.98;1.87;;;;;;;16.22;45.26;93155.55;812666;71;27000;-79
2021/11/27 07:03:13;;;;;;;2.30;2.10;;;;;;;16.29;45.18;93146.95;828037;71;26323;-78
2021/11/27 07:04:18;;;;;;;1.77;1.67;;;;;;;16.25;45.20;93177.33;828071;71;26357;-77
2021/11/27 07:05:21;;;;;;;2.40;2.20;;;;;;;16.25;45.36;93190.56;827943;71;26264;-78
2021/11/27 07:06:25;;;;;;;2.10;2.00;;;;;;;16.22;45.46;93187.31;815117;71;26654;-78
2021/11/27 07:07:29;;;;;;;2.12;2.00;;;;;;;16.21;45.58;93209.03;808277;72;26361;-81
2021/11/27 07:08:33;;;;;;;2.05;1.95;;;;;;;16.14;45.58;93189.63;806832;73;26298;-78
2021/11/27 07:09:37;;;;;;;2.25;1.80;;;;;;;16.10;45.68;93181.65;806445;73;26406;-77
2021/11/27 07:10:43;;;;;;;2.35;1.60;;;;;;;16.10;45.71;93190.12;807066;73;26437;-77
2021/11/27 07:11:46;;;;;;;1.82;1.72;;;;;;;16.10;45.79;93169.73;807515;72;26360;-77
2021/11/27 07:12:50;;;;;;;2.02;1.92;;;;;;;16.10;45.75;93182.97;806333;73;26298;-78
2021/11/27 07:13:53;;;;;;;1.92;1.82;;;;;;;16.13;45.80;93176.95;806397;73;26302;-78
2021/11/27 07:15:01;;;;;;;2.10;2.00;;;;;;;16.12;45.66;93174.66;806087;73;26951;-79
2021/11/27 07:16:03;;;;;;;1.85;1.75;;;;;;;16.00;45.67;93183.00;806194;73;26302;-77
2021/11/27 07:17:07;;;;;;;4.97;1.90;;;;;;;15.90;45.89;93180.95;806414;73;26364;-78
2021/11/27 07:18:10;;;;;;;2.08;1.98;;;;;;;15.86;46.15;93169.55;807417;72;26279;-78
2021/11/27 07:19:14;;;;;;;1.67;1.67;;;;;;;15.81;46.10;93183.84;813063;72;26324;-77
2021/11/27 07:20:18;;;;;;;1.90;1.80;;;;;;;15.75;46.17;93152.19;821061;72;26273;-78
2021/11/27 07:21:22;;;;;;;1.52;1.42;;;;;;;15.70;46.12;93180.77;821235;72;26219;-78
2021/11/27 07:22:27;;;;;;;2.00;1.77;;;;;;;15.67;46.23;93169.56;821003;72;26754;-77
2021/11/27 07:23:30;;;;;;;1.87;1.77;;;;;;;15.59;46.30;93184.00;821065;72;26357;-77
2021/11/27 07:24:34;;;;;;;2.20;1.70;;;;;;;15.58;46.43;93174.52;821003;72;26296;-75
2021/11/27 07:25:41;;;;;;;2.17;2.05;;;;;;;15.57;46.54;93175.66;806614;73;26282;-76
2021/11/27 07:26:45;;;;;;;1.60;1.50;;;;;;;15.54;46.41;93188.24;806334;73;26376;-77
2021/11/27 07:27:48;;;;;;;3.15;1.85;;;;;;;15.48;46.47;93146.59;807414;73;26345;-76
2021/11/27 07:28:57;;;;;;;1.70;1.60;;;;;;;15.46;46.53;93179.22;807714;72;26410;-78
2021/11/27 07:29:59;;;;;;;1.75;1.65;;;;;;;15.47;46.62;93184.70;806389;73;26803;-79
2021/11/27 07:31:03;;;;;;;2.05;1.87;;;;;;;15.50;46.62;93164.19;806891;73;26692;-77
2021/11/27 07:32:09;;;;;;;4.62;2.27;;;;;;;15.24;46.61;93152.39;807119;73;26589;-79
2021/11/27 07:33:13;;;;;;;2.00;1.90;;;;;;;15.51;46.59;93173.09;807563;73;26315;-78
2021/11/27 07:34:17;;;;;;;1.62;1.50;;;;;;;15.53;46.49;93168.22;807798;73;27088;-78
2021/11/27 07:35:21;;;;;;;1.90;1.80;;;;;;;15.58;46.53;93194.36;807755;73;26305;-78
2021/11/27 07:36:25;;;;;;;2.70;2.15;;;;;;;15.65;46.28;93205.61;807707;73;26211;-79
2021/11/27 07:37:28;;;;;;;2.10;2.00;;;;;;;15.71;46.03;93176.44;808051;73;26327;-82
2021/11/27 07:38:33;;;;;;;1.90;1.80;;;;;;;15.80;45.93;93192.13;809350;73;26334;-79
2021/11/27 07:39:38;;;;;;;4.03;2.05;;;;;;;15.89;45.63;93204.54;808466;72;26281;-79
2021/11/27 07:40:42;;;;;;;2.00;1.90;;;;;;;15.99;45.54;93189.40;806398;73;26381;-78
2021/11/27 07:41:46;;;;;;;1.45;1.45;;;;;;;16.09;45.44;93208.45;806509;72;26287;-79
2021/11/27 07:42:58;;;;;;;2.15;2.02;;;;;;;16.18;45.15;93207.11;807244;73;26266;-79
2021/11/27 07:43:57;;;;;;;2.10;2.00;;;;;;;16.26;44.83;93205.88;805446;73;26266;-79
2021/11/27 07:45:01;;;;;;;2.15;1.95;;;;;;;16.35;44.83;93221.72;806363;73;26360;-81
2021/11/27 07:46:05;;;;;;;1.80;1.70;;;;;;;16.45;44.57;93220.92;806948;73;26773;-77
2021/11/27 07:47:09;;;;;;;2.00;1.90;;;;;;;16.56;44.37;93240.37;807611;73;26334;-78
2021/11/27 07:48:12;;;;;;;2.30;2.15;;;;;;;16.65;44.11;93232.95;807826;73;26324;-79
2021/11/27 07:49:16;;;;;;;2.02;1.92;;;;;;;16.71;44.05;93228.11;807503;73;26935;-79
2021/11/27 07:50:20;;;;;;;1.90;1.80;;;;;;;16.84;43.97;93236.64;807874;73;26264;-79
2021/11/27 07:51:24;;;;;;;1.95;1.85;;;;;;;16.94;43.72;93241.31;807723;73;26273;-80
2021/11/27 07:52:27;;;;;;;1.90;1.80;;;;;;;17.05;43.49;93228.95;807442;73;26561;-78
2021/11/27 07:53:31;;;;;;;1.95;1.85;;;;;;;17.15;43.53;93233.65;807528;73;26400;-79
2021/11/27 07:54:35;;;;;;;1.87;1.77;;;;;;;17.20;43.24;93244.48;806710;73;27086;-79
2021/11/27 07:55:39;;;;;;;3.75;1.80;;;;;;;17.22;43.08;93242.24;807456;73;26304;-80
2021/11/27 07:56:43;;;;;;;2.90;1.90;;;;;;;17.19;42.97;93254.87;806331;73;26291;-80
2021/11/27 07:57:46;;;;;;;1.98;1.87;;;;;;;17.08;42.92;93235.44;806041;73;26309;-78
2021/11/27 07:58:50;;;;;;;2.25;1.90;;;;;;;17.03;43.11;93244.45;806302;73;26271;-78
2021/11/27 07:59:54;;;;;;;1.98;1.87;;;;;;;17.00;43.07;93248.59;806160;73;26590;-79
2021/11/27 08:00:58;;;;;;;1.80;1.80;;;;;;;16.95;43.20;93237.53;806615;73;26328;-77
2021/11/27 08:02:03;;;;;;;2.00;1.80;;;;;;;16.92;43.35;93243.55;806716;73;26291;-77
2021/11/27 08:03:07;;;;;;;2.12;1.80;;;;;;;16.90;43.41;93235.20;807120;73;26272;-77
2021/11/27 08:04:11;;;;;;;1.95;1.85;;;;;;;16.82;43.35;93228.47;811169;72;26694;-79
2021/11/27 08:05:15;;;;;;;2.55;1.85;;;;;;;16.77;43.66;93253.17;811892;72;26267;-78
2021/11/27 08:06:19;;;;;;;2.42;2.22;;;;;;;16.73;43.82;93239.87;810758;73;26267;-77
2021/11/27 08:07:23;;;;;;;1.90;1.80;;;;;;;16.69;43.96;93247.58;810633;73;26320;-78
2021/11/27 08:08:26;;;;;;;2.00;1.90;;;;;;;16.64;44.08;93245.97;810928;73;26327;-80
2021/11/27 08:09:30;;;;;;;2.27;2.17;;;;;;;16.64;44.17;93243.33;810833;73;26279;-77
2021/11/27 08:10:34;;;;;;;2.10;2.00;;;;;;;16.53;44.24;93241.85;811356;73;26669;-77
2021/11/27 08:11:38;;;;;;;2.17;1.98;;;;;;;16.49;44.47;93246.90;810685;73;26957;-78
2021/11/27 08:12:42;;;;;;;2.10;2.00;;;;;;;16.49;44.53;93242.92;811452;73;26322;-80
2021/11/27 08:13:47;;;;;;;2.10;2.00;;;;;;;16.47;44.64;93226.06;817433;72;26302;-81
2021/11/27 08:14:51;;;;;;;2.02;1.92;;;;;;;16.41;44.60;93252.64;811267;73;27079;-80
2021/11/27 08:15:55;;;;;;;2.25;2.00;;;;;;;16.34;44.59;93235.31;811398;73;26340;-78
2021/11/27 08:17:03;;;;;;;1.98;1.87;;;;;;;16.33;44.80;93239.84;810862;73;26302;-77
2021/11/27 08:18:06;;;;;;;2.08;1.98;;;;;;;16.30;44.89;93230.52;810883;73;26271;-78
2021/11/27 08:19:10;;;;;;;2.00;1.90;;;;;;;16.32;44.98;93252.11;812057;73;26326;-81
2021/11/27 08:20:14;;;;;;;2.33;2.20;;;;;;;16.32;44.98;93243.62;812101;73;26327;-79
2021/11/27 08:21:19;;;;;;;2.10;2.00;;;;;;;16.32;45.04;93263.48;804269;74;26327;-82
2021/11/27 08:22:35;;;;;;;2.08;1.98;;;;;;;16.32;44.98;93275.39;793790;74;26314;-80
2021/11/27 08:23:49;;;;;;;1.80;1.70;;;;;;;16.27;45.39;93246.55;810418;72;26312;-80
2021/11/27 08:24:58;;;;;;;1.60;1.50;;;;;;;16.25;45.17;93248.80;811814;73;26403;-79
2021/11/27 08:26:06;;;;;;;2.40;2.20;;;;;;;16.21;45.22;93250.05;811876;73;26262;-81
2021/11/27 08:27:13;;;;;;;1.90;1.80;;;;;;;16.21;45.26;93259.31;812171;72;26318;-77
2021/11/27 08:28:20;;;;;;;1.90;1.80;;;;;;;16.22;45.15;93251.59;811793;73;26262;-78
2021/11/27 08:29:29;;;;;;;2.00;1.90;;;;;;;16.23;45.11;93247.81;822662;72;26326;-80
2021/11/27 08:30:36;;;;;;;1.80;1.70;;;;;;;16.30;45.16;93243.22;825380;72;26731;-78
2021/11/27 08:31:46;;;;;;;2.40;2.05;;;;;;;16.29;44.99;93249.61;811004;72;26699;-81
2021/11/27 08:32:53;;;;;;;1.70;1.70;;;;;;;16.30;44.89;93250.38;811165;72;26218;-79
2021/11/27 08:34:01;;;;;;;1.90;1.80;;;;;;;16.31;44.95;93250.02;818906;72;26345;-77
2021/11/27 08:35:08;;;;;;;1.90;1.80;;;;;;;16.29;44.91;93242.23;825823;72;26345;-78
2021/11/27 08:36:21;;;;;;;1.72;1.72;;;;;;;16.30;45.05;93256.98;824348;72;26690;-82
2021/11/27 08:37:31;;;;;;;2.47;1.60;;;;;;;16.32;44.95;93248.92;813462;72;26340;-82
2021/11/27 08:38:56;;;;;;;3.15;2.20;;;;;;;16.31;44.88;93257.20;808345;73;26375;-78
2021/11/27 08:40:02;;;;;;;3.45;2.00;;;;;;;16.33;44.98;93266.31;793589;74;26224;-78
2021/11/27 08:41:15;;;;;;;2.00;1.90;;;;;;;16.35;44.90;93275.23;787493;75;26488;-80
2021/11/27 08:42:28;;;;;;;2.27;2.15;;;;;;;16.32;44.87;93246.27;791613;74;26228;-79
2021/11/27 08:43:47;;;;;;;2.22;2.12;;;;;;;16.27;44.96;93265.09;786673;74;26337;-79
2021/11/27 08:44:56;;;;;;;1.90;1.80;;;;;;;16.32;45.06;93262.69;793540;74;26246;-79
2021/11/27 08:46:14;;;;;;;2.08;1.98;;;;;;;16.34;44.94;93277.66;793669;74;26791;-78
2021/11/27 08:47:43;;;;;;;2.10;1.87;;;;;;;16.35;44.93;93271.27;790829;74;27154;-82
2021/11/27 08:49:11;;;;;;;1.90;1.80;;;;;;;16.35;44.95;93293.77;794090;74;26310;-78
2021/11/27 08:50:37;;;;;;;1.90;1.72;;;;;;;16.30;44.90;93271.55;793479;74;26392;-81
2021/11/27 08:51:52;;;;;;;1.95;1.85;;;;;;;16.29;44.91;93270.79;793309;74;26235;-77
2021/11/27 08:52:59;;;;;;;2.02;1.92;;;;;;;16.28;44.98;93273.25;793051;74;26572;-79
2021/11/27 08:54:12;;;;;;;2.12;1.87;;;;;;;16.29;45.06;93263.41;793348;74;26390;-79
2021/11/27 08:55:17;;;;;;;1.95;1.85;;;;;;;16.30;44.99;93263.07;793180;74;26286;-82
2021/11/27 08:56:24;;;;;;;1.90;1.80;;;;;;;16.27;44.97;93270.95;779499;76;26421;-76
2021/11/27 08:57:31;;;;;;;2.83;1.70;;;;;;;16.23;44.74;93262.94;767188;76;26354;-77
2021/11/27 08:58:42;;;;;;;1.80;1.65;;;;;;;16.12;45.09;93269.39;781659;74;26312;-77
2021/11/27 09:00:12;;;;;;;1.80;1.70;;;;;;;16.11;45.13;93283.72;779108;76;26361;-80
2021/11/27 09:16:17;;;;;;;2.15;2.05;;;;;;;15.75;45.76;93258.52;827327;71;31321;-77
2021/11/27 09:31:22;;;;;;;3.20;2.20;;;;;;;16.33;44.34;93270.28;833550;71;32800;-81
2021/11/27 09:46:16;;;;;;;2.72;2.05;;;;;;;17.07;42.82;93255.10;827890;71;32687;-79
2021/11/27 10:01:19;;;;;;;2.58;2.40;;;;;;;17.80;41.15;93261.66;826991;71;32784;-81
2021/11/27 10:16:22;;;;;;;2.00;1.90;;;;;;;17.70;40.57;93217.75;826394;71;32697;-82
2021/11/27 10:31:31;;;;;;;2.30;2.20;;;;;;;19.16;38.80;93239.95;822919;71;32955;-81
2021/11/27 10:46:31;;;;;;;2.20;2.00;;;;;;;20.00;37.05;93191.38;833247;71;32820;-78
2021/11/27 11:01:32;;;;;;;2.33;2.12;;;;;;;19.36;37.32;93176.58;833433;71;33225;-77
2021/11/27 11:16:15;;;;;;;2.20;2.10;;;;;;;19.38;37.21;93135.19;827890;71;30171;-77
2021/11/27 11:31:37;;;;;;;2.37;2.00;;;;;;;18.28;38.94;93127.45;824758;70;33824;-77
2021/11/27 11:46:15;;;;;;;2.52;2.20;;;;;;;18.47;37.51;93139.16;828662;71;30336;-76
2021/11/27 12:01:29;;;;;;;2.00;1.90;;;;;;;18.59;38.65;93147.36;818250;71;32821;-76
2021/11/27 12:16:34;;;;;;;1.95;1.85;;;;;;;19.92;37.23;93148.58;824448;70;33368;-78
2021/11/27 12:31:27;;;;;;;2.20;2.10;;;;;;;19.18;36.57;93074.13;822918;71;30328;-78
2021/11/27 13:16:48;;;;;;;2.10;2.00;;;;;;;17.29;40.95;93111.64;824228;71;32838;-81
2021/11/27 13:31:34;;;;;;;2.67;2.47;;;;;;;16.69;42.00;93106.62;822871;71;32711;-77
2021/11/27 13:46:14;;;;;;;2.45;2.30;;;;;;;16.19;42.91;93110.69;825536;71;32295;-78
2021/11/27 14:01:32;;;;;;;5.25;2.72;;;;;;;15.57;44.81;93108.23;820754;71;32879;-79
2021/11/27 14:16:22;;;;;;;5.05;3.15;;;;;;;15.18;45.31;93124.16;819786;71;32717;-79
2021/11/27 14:31:14;;;;;;;3.30;3.10;;;;;;;14.89;46.32;93133.45;822943;71;32150;-78
2021/11/27 14:46:30;;;;;;;3.20;2.95;;;;;;;14.59;46.45;93155.66;820438;71;33312;-76
2021/11/27 15:16:47;;;;;;;3.42;3.22;;;;;;;14.22;46.17;93203.47;813401;72;33035;-79
2021/11/27 16:16:38;;;;;;;2.70;2.50;;;;;;;13.93;46.44;93150.06;819794;71;31730;-79
2021/11/27 16:46:28;;;;;;;2.70;2.50;;;;;;;13.98;43.91;93154.30;821776;71;32239;-82
2021/11/27 17:01:57;;;;;;;4.67;2.58;;;;;;;13.78;43.52;93138.95;847740;69;31695;-82
2021/11/27 19:01:53;;;;;;;14.75;11.80;;;;;;;11.93;56.54;93193.50;830601;71;32237;-81
2021/11/27 20:01:58;;;;;;;25.62;20.15;;;;;;;11.10;60.82;93171.63;822022;71;32960;-79
2021/11/27 20:16:43;;;;;;;26.48;18.02;;;;;;;11.05;61.55;93174.99;822975;71;32937;-78
2021/11/27 21:47:08;;;;;;;;;;;;;;;;;;;;;
2021/11/27 22:16:57;;;;;;;29.57;21.10;;;;;;;10.20;65.90;93190.70;814673;72;32876;-82
2021/11/27 22:46:39;;;;;;;23.02;16.35;;;;;;;10.17;67.73;93127.66;826998;71;32810;-80
2021/11/27 23:01:47;;;;;;;20.30;14.00;;;;;;;10.21;67.50;93100.48;833175;71;32837;-79
2021/11/27 23:31:37;;;;;;;19.73;13.70;;;;;;;10.36;68.56;93112.81;828126;70;32677;-79
